Terminal Aerodrome Forecast
Issued by NWS Duluth, MN

Home | Current Version | Previous Version | Text Only | Print | Product List | Glossary On
Versions: 1 2 3 4 5 6 7 8 9 10 11 12 13 14 15 16 17
000
FTUS43 KDLH 302300 AAA
TAFDLH
TAF AMD
KDLH 302339Z 0100/0124 11008KT P6SM FEW200
     FM010700 16004KT P6SM SCT200
     FM011200 23008KT P6SM SCT080
     FM011700 21010KT P6SM VCSH BKN070=

USA.gov is the U.S. government's official web portal to all federal, state and local government web resources and services.